< < Back
Terminal Aerodrome Forecast


Current Version              Previous Versions:   1  2  3  4  5  6  7  8  9  

Terminal Aerodrome Forecast

477
FTUS42 KFFC 300523
TAFAHN
TAF
KAHN 300523Z 3006/3106 21006KT P6SM BKN050
     FM300800 30015G25KT P6SM OVC025
     FM301100 32012KT P6SM BKN035
     FM301300 32014KT P6SM SCT040
     FM301500 32014G24KT P6SM SCT150
     FM310000 31004KT P6SM SKC=



Latest METAR

439
SAUS70 KWBC 300800
MTRAHN
METAR KAHN 300751Z AUTO 31015G23KT 10SM BKN042 OVC075 10/03 A3008 RMK
AO2 SLP186 T01000028


USA.gov is the U.S. government's official web portal to all federal, state and local government web resources and services.